createdAt,value
2022-07-28T00:00:30.647Z,1.00
2022-07-28T00:01:30.780Z,1.80
2022-07-28T00:02:30.749Z,1.30
2022-07-28T00:03:30.734Z,1.30
2022-07-28T00:04:30.592Z,1.50
2022-07-28T00:05:30.585Z,1.10
2022-07-28T00:06:30.578Z,1.30
2022-07-28T00:07:30.580Z,1.40
2022-07-28T00:08:30.559Z,1.10
2022-07-28T00:09:30.543Z,1.40
2022-07-28T00:10:30.522Z,1.30
2022-07-28T00:11:30.526Z,1.20
2022-07-28T00:12:30.526Z,1.20
2022-07-28T00:13:30.519Z,1.20
2022-07-28T00:14:30.478Z,1.40
2022-07-28T00:15:30.470Z,1.40
2022-07-28T00:16:30.558Z,1.60
2022-07-28T00:17:30.475Z,1.50
2022-07-28T00:18:30.441Z,1.40
2022-07-28T00:19:30.423Z,1.60
2022-07-28T00:20:30.421Z,1.30
2022-07-28T00:21:30.410Z,1.40
2022-07-28T00:22:30.395Z,1.20
2022-07-28T00:23:38.809Z,1.20
2022-07-28T00:24:30.375Z,1.70
2022-07-28T00:25:30.351Z,1.30
2022-07-28T00:26:30.348Z,1.60
2022-07-28T00:27:30.333Z,1.40
2022-07-28T00:28:30.340Z,1.40
2022-07-28T00:29:49.243Z,1.30
2022-07-28T00:30:30.295Z,1.40
2022-07-28T00:31:30.386Z,1.60
2022-07-28T00:32:30.271Z,1.30
2022-07-28T00:33:30.276Z,1.60
2022-07-28T00:34:30.262Z,1.30
2022-07-28T00:35:31.653Z,1.50
2022-07-28T00:36:30.231Z,1.30
2022-07-28T00:37:30.220Z,1.20
2022-07-28T00:38:30.324Z,1.40
2022-07-28T00:39:30.211Z,1.60
2022-07-28T00:40:30.179Z,1.50
2022-07-28T00:41:30.169Z,1.20
2022-07-28T00:42:30.158Z,1.30
2022-07-28T00:43:30.153Z,1.50
2022-07-28T00:44:30.153Z,1.30
2022-07-28T00:45:30.148Z,1.60
2022-07-28T00:47:39.070Z,1.20
2022-07-28T00:48:40.266Z,1.40
2022-07-28T00:49:40.054Z,1.40
2022-07-28T00:50:40.083Z,1.30
2022-07-28T00:51:40.034Z,1.70
2022-07-28T00:52:40.018Z,1.60
2022-07-28T00:53:40.007Z,1.60
2022-07-28T00:54:39.992Z,1.40
2022-07-28T00:56:04.084Z,1.20
2022-07-28T00:56:39.981Z,1.50
2022-07-28T00:57:39.959Z,1.50
2022-07-28T00:58:39.949Z,1.70
2022-07-28T00:59:39.945Z,1.40
2022-07-28T01:00:39.936Z,1.50
2022-07-28T01:01:40.160Z,1.40
2022-07-28T01:02:40.069Z,1.40
2022-07-28T01:03:39.897Z,1.70
2022-07-28T01:04:39.885Z,1.90
2022-07-28T01:05:43.838Z,1.40
2022-07-28T01:06:39.873Z,1.40
2022-07-28T01:07:39.866Z,1.30
2022-07-28T01:08:39.842Z,1.30
2022-07-28T01:09:39.835Z,1.50
2022-07-28T01:10:39.826Z,1.50
2022-07-28T01:11:42.962Z,1.70
2022-07-28T01:12:39.821Z,1.20
2022-07-28T01:13:39.783Z,1.90
2022-07-28T01:14:39.770Z,1.40
2022-07-28T01:15:39.816Z,1.50
2022-07-28T01:16:39.757Z,1.60
2022-07-28T01:17:39.764Z,1.40
2022-07-28T01:18:39.733Z,1.60
2022-07-28T01:19:40.552Z,1.30
2022-07-28T01:20:39.711Z,1.70
2022-07-28T01:21:39.700Z,1.60
2022-07-28T01:22:39.702Z,1.60
2022-07-28T01:23:39.689Z,1.60
2022-07-28T01:24:39.676Z,1.60
2022-07-28T01:25:39.655Z,1.30
2022-07-28T01:26:39.660Z,1.50
2022-07-28T01:27:39.651Z,1.50
2022-07-28T01:28:39.635Z,1.50
2022-07-28T01:29:39.615Z,1.90
2022-07-28T01:30:39.650Z,1.60
2022-07-28T01:31:39.632Z,1.40
2022-07-28T01:32:39.585Z,1.50
2022-07-28T01:33:39.582Z,1.60
2022-07-28T01:34:39.567Z,1.80
2022-07-28T01:35:39.542Z,1.20
2022-07-28T01:36:39.536Z,1.60
2022-07-28T01:37:39.517Z,1.70
2022-07-28T01:38:39.516Z,1.70
2022-07-28T01:39:39.500Z,1.30
2022-07-28T01:40:39.512Z,1.40
2022-07-28T01:41:39.497Z,1.30
2022-07-28T01:42:39.466Z,1.70
2022-07-28T01:43:39.485Z,1.70
2022-07-28T01:44:39.445Z,1.70
2022-07-28T01:45:39.430Z,1.80
2022-07-28T01:46:39.497Z,1.60
2022-07-28T01:47:39.409Z,1.40
2022-07-28T01:48:39.449Z,1.60
2022-07-28T01:49:39.398Z,1.40
2022-07-28T01:50:39.375Z,1.70
2022-07-28T01:51:39.364Z,1.80
2022-07-28T01:52:39.378Z,1.70
2022-07-28T01:53:39.350Z,1.60
2022-07-28T01:54:39.347Z,1.60
2022-07-28T01:55:39.319Z,1.50
2022-07-28T01:56:39.310Z,1.50
2022-07-28T01:57:39.302Z,1.80
2022-07-28T01:58:39.313Z,1.90
2022-07-28T01:59:39.301Z,1.60
2022-07-28T02:00:39.264Z,1.60
2022-07-28T02:01:39.330Z,1.50
2022-07-28T02:02:39.255Z,1.70
2022-07-28T02:03:39.233Z,1.80
2022-07-28T02:04:39.290Z,1.60
2022-07-28T02:05:39.214Z,1.80
2022-07-28T02:06:39.207Z,1.90
2022-07-28T02:07:39.190Z,1.60
2022-07-28T02:08:39.188Z,1.70
2022-07-28T02:09:39.178Z,1.80
2022-07-28T02:10:39.157Z,1.70
2022-07-28T02:11:39.156Z,2.00
2022-07-28T02:12:39.135Z,1.60
2022-07-28T02:13:39.122Z,2.10
2022-07-28T02:14:39.117Z,1.70
2022-07-28T02:15:39.142Z,2.00
2022-07-28T02:16:39.090Z,1.50
2022-07-28T02:17:39.076Z,1.50
2022-07-28T02:18:39.073Z,2.00
2022-07-28T02:19:39.054Z,1.70
2022-07-28T02:20:39.058Z,1.70
2022-07-28T02:21:39.026Z,1.60
2022-07-28T02:22:39.030Z,1.70
2022-07-28T02:23:39.045Z,1.50
2022-07-28T02:24:38.995Z,1.90
2022-07-28T02:25:39.011Z,1.90
2022-07-28T02:26:38.979Z,1.60
2022-07-28T02:27:38.970Z,1.80
2022-07-28T02:28:38.949Z,1.80
2022-07-28T02:29:50.647Z,1.60
2022-07-28T02:30:38.979Z,1.80
2022-07-28T02:31:40.484Z,1.70
2022-07-28T02:32:38.925Z,1.80
2022-07-28T02:33:58.935Z,1.70
2022-07-28T02:34:38.889Z,1.90
2022-07-28T02:35:38.890Z,1.60
2022-07-28T02:36:39.006Z,1.80
2022-07-28T02:37:38.858Z,1.60
2022-07-28T02:38:38.838Z,1.70
2022-07-28T02:39:38.843Z,2.10
2022-07-28T02:40:38.829Z,1.50
2022-07-28T02:41:38.824Z,2.00
2022-07-28T02:42:38.832Z,1.60
2022-07-28T02:43:49.217Z,1.90
2022-07-28T02:44:38.778Z,1.80
2022-07-28T02:45:38.776Z,1.60
2022-07-28T02:46:38.847Z,1.90
2022-07-28T02:48:47.776Z,2.00
2022-07-28T02:49:48.684Z,1.70
2022-07-28T02:50:48.678Z,1.60
2022-07-28T02:51:48.685Z,1.70
2022-07-28T02:52:48.650Z,1.90
2022-07-28T02:53:48.648Z,1.90
2022-07-28T02:54:48.636Z,1.70
2022-07-28T02:55:48.620Z,1.70
2022-07-28T02:56:53.377Z,2.00
2022-07-28T02:57:50.952Z,1.70
2022-07-28T02:58:48.592Z,1.80
2022-07-28T02:59:48.578Z,1.70
2022-07-28T03:00:48.564Z,1.80
2022-07-28T03:01:48.632Z,1.80
2022-07-28T03:02:48.557Z,1.80
2022-07-28T03:03:48.534Z,1.60
2022-07-28T03:04:48.594Z,1.80
2022-07-28T03:05:48.521Z,1.60
2022-07-28T03:06:48.501Z,2.00
2022-07-28T03:07:51.069Z,1.60
2022-07-28T03:08:48.478Z,1.90
2022-07-28T03:09:48.465Z,1.80
2022-07-28T03:10:48.455Z,1.70
2022-07-28T03:11:48.442Z,1.90
2022-07-28T03:12:48.454Z,1.70
2022-07-28T03:13:48.423Z,2.00
2022-07-28T03:14:48.410Z,1.80
2022-07-28T03:15:48.399Z,1.80
2022-07-28T03:16:53.571Z,1.60
2022-07-28T03:17:48.399Z,1.70
2022-07-28T03:18:48.360Z,1.80
2022-07-28T03:19:48.353Z,1.60
2022-07-28T03:20:48.348Z,2.10
2022-07-28T03:21:48.333Z,1.80
2022-07-28T03:22:48.335Z,1.90
2022-07-28T03:23:48.315Z,1.90
2022-07-28T03:24:48.318Z,1.70
2022-07-28T03:25:48.288Z,1.90
2022-07-28T03:26:48.289Z,1.70
2022-07-28T03:27:48.280Z,1.80
2022-07-28T03:28:48.264Z,2.10
2022-07-28T03:29:48.247Z,1.90
2022-07-28T03:30:48.309Z,1.60
2022-07-28T03:31:48.228Z,1.70
2022-07-28T03:32:48.214Z,1.70
2022-07-28T03:33:48.215Z,2.00
2022-07-28T03:34:48.191Z,1.90
2022-07-28T03:35:48.172Z,1.70
2022-07-28T03:36:48.172Z,1.90
2022-07-28T03:37:48.154Z,2.20
2022-07-28T03:38:48.164Z,1.60
2022-07-28T03:39:48.141Z,1.80
2022-07-28T03:40:48.132Z,1.80
2022-07-28T03:41:48.113Z,1.90
2022-07-28T03:42:48.097Z,1.30
2022-07-28T03:43:48.100Z,1.80
2022-07-28T03:44:48.071Z,1.80
2022-07-28T03:45:48.224Z,1.70
2022-07-28T03:46:48.061Z,1.60
2022-07-28T03:47:48.066Z,1.80
2022-07-28T03:48:48.135Z,1.70
2022-07-28T03:49:48.047Z,2.30
2022-07-28T03:50:48.027Z,1.80
2022-07-28T03:51:48.007Z,1.50
2022-07-28T03:52:47.986Z,1.60
2022-07-28T03:53:47.975Z,1.80
2022-07-28T03:54:47.970Z,1.70
2022-07-28T03:55:47.968Z,1.90
2022-07-28T03:56:47.935Z,1.70
2022-07-28T03:57:47.946Z,2.10
2022-07-28T03:58:47.921Z,1.80
2022-07-28T03:59:47.920Z,2.00
2022-07-28T04:00:48.286Z,1.60
2022-07-28T04:01:47.933Z,1.90
2022-07-28T04:02:47.976Z,1.90
2022-07-28T04:03:47.867Z,2.00
2022-07-28T04:04:47.863Z,1.90
2022-07-28T04:05:47.852Z,2.20
2022-07-28T04:06:47.831Z,2.00
2022-07-28T04:07:47.814Z,1.80
2022-07-28T04:08:47.803Z,1.80
2022-07-28T04:09:47.792Z,1.80
2022-07-28T04:10:47.798Z,1.80
2022-07-28T04:11:47.774Z,1.80
2022-07-28T04:12:47.764Z,1.60
2022-07-28T04:13:47.746Z,2.20
2022-07-28T04:14:47.743Z,1.60
2022-07-28T04:15:47.737Z,1.90
2022-07-28T04:16:47.797Z,1.90
2022-07-28T04:17:47.706Z,2.00
2022-07-28T04:18:47.696Z,1.90
2022-07-28T04:19:47.681Z,2.10
2022-07-28T04:20:47.682Z,1.70
2022-07-28T04:21:47.673Z,2.10
2022-07-28T04:22:47.658Z,2.20
2022-07-28T04:23:47.643Z,2.20
2022-07-28T04:24:47.630Z,1.90
2022-07-28T04:25:47.615Z,1.90
2022-07-28T04:26:47.616Z,2.00
2022-07-28T04:27:47.607Z,1.80
2022-07-28T04:28:47.581Z,2.20
2022-07-28T04:29:47.594Z,1.70
2022-07-28T04:30:47.624Z,1.80
2022-07-28T04:31:47.569Z,2.50
2022-07-28T04:32:47.535Z,2.00
2022-07-28T04:33:47.530Z,2.00
2022-07-28T04:34:47.521Z,2.10
2022-07-28T04:35:47.663Z,2.20
2022-07-28T04:36:47.526Z,2.20
2022-07-28T04:37:47.498Z,2.30
2022-07-28T04:38:47.470Z,2.50
2022-07-28T04:39:47.459Z,2.80
2022-07-28T04:40:47.457Z,2.70
2022-07-28T04:41:47.460Z,2.60
2022-07-28T04:42:47.454Z,2.60
2022-07-28T04:43:47.421Z,2.80
2022-07-28T04:44:47.403Z,2.70
2022-07-28T04:45:53.906Z,2.50
2022-07-28T04:46:47.447Z,2.80
2022-07-28T04:47:47.424Z,2.70
2022-07-28T04:49:56.362Z,3.30
2022-07-28T04:50:57.336Z,2.60
2022-07-28T04:51:57.331Z,2.30
2022-07-28T04:52:57.314Z,1.80
2022-07-28T04:53:57.301Z,2.10
2022-07-28T04:54:57.313Z,2.30
2022-07-28T04:55:57.298Z,2.20
2022-07-28T04:56:57.275Z,2.20
2022-07-28T04:57:57.293Z,1.90
2022-07-28T04:58:57.246Z,2.30
2022-07-28T04:59:57.252Z,2.40
2022-07-28T05:00:57.285Z,2.30
2022-07-28T05:01:57.231Z,2.40
2022-07-28T05:02:57.207Z,2.60
2022-07-28T05:03:57.198Z,2.60
2022-07-28T05:04:57.305Z,2.40
2022-07-28T05:05:57.181Z,2.60
2022-07-28T05:06:57.159Z,2.40
2022-07-28T05:07:57.151Z,2.50
2022-07-28T05:08:57.146Z,2.30
2022-07-28T05:09:57.141Z,2.30
2022-07-28T05:10:57.130Z,2.10
2022-07-28T05:11:57.114Z,2.20
2022-07-28T05:12:57.094Z,1.80
2022-07-28T05:13:57.090Z,2.00
2022-07-28T05:14:57.076Z,2.00
2022-07-28T05:15:57.075Z,2.00
2022-07-28T05:16:57.158Z,1.90
2022-07-28T05:17:57.053Z,2.30
2022-07-28T05:18:57.042Z,2.10
2022-07-28T05:19:57.031Z,2.10
2022-07-28T05:20:57.026Z,2.10
2022-07-28T05:21:57.010Z,2.30
2022-07-28T05:22:56.996Z,2.10
2022-07-28T05:23:56.988Z,2.00
2022-07-28T05:24:56.960Z,1.60
2022-07-28T05:25:56.962Z,2.00
2022-07-28T05:26:56.937Z,1.70
2022-07-28T05:27:56.928Z,1.90
2022-07-28T05:28:56.945Z,1.90
2022-07-28T05:29:56.920Z,1.70
2022-07-28T05:30:56.927Z,1.70
2022-07-28T05:31:56.982Z,1.60
2022-07-28T05:32:56.871Z,1.80
2022-07-28T05:33:56.865Z,1.70
2022-07-28T05:34:56.859Z,1.60
2022-07-28T05:35:56.834Z,1.60
2022-07-28T05:36:56.851Z,1.80
2022-07-28T05:37:56.812Z,1.70
2022-07-28T05:38:56.807Z,1.30
2022-07-28T05:39:56.799Z,1.30
2022-07-28T05:40:56.827Z,1.60
2022-07-28T05:41:56.799Z,1.50
2022-07-28T05:42:56.800Z,1.40
2022-07-28T05:43:56.753Z,1.70
2022-07-28T05:44:56.749Z,1.40
2022-07-28T05:45:56.866Z,1.60
2022-07-28T05:46:56.715Z,1.60
2022-07-28T05:47:56.718Z,1.60
2022-07-28T05:48:56.794Z,1.50
2022-07-28T05:49:56.687Z,1.50
2022-07-28T05:50:56.677Z,1.80
2022-07-28T05:51:56.661Z,1.60
2022-07-28T05:52:56.671Z,1.70
2022-07-28T05:53:56.640Z,1.80
2022-07-28T05:54:56.642Z,1.70
2022-07-28T05:56:00.315Z,1.80
2022-07-28T05:56:56.605Z,1.40
2022-07-28T05:57:56.591Z,1.50
2022-07-28T05:58:56.577Z,1.30
2022-07-28T05:59:56.587Z,1.60
2022-07-28T06:00:56.651Z,1.20
2022-07-28T06:01:56.628Z,1.20
2022-07-28T06:02:56.537Z,1.30
2022-07-28T06:04:26.093Z,1.40
2022-07-28T06:04:56.515Z,1.10
2022-07-28T06:05:59.498Z,1.40
2022-07-28T06:06:56.517Z,1.40
2022-07-28T06:07:56.483Z,1.80
2022-07-28T06:08:56.475Z,1.30
2022-07-28T06:09:56.462Z,1.10
2022-07-28T06:10:56.477Z,1.30
2022-07-28T06:11:56.444Z,1.30
2022-07-28T06:12:56.443Z,1.40
2022-07-28T06:13:56.417Z,1.70
2022-07-28T06:14:56.408Z,1.10
2022-07-28T06:15:56.398Z,1.30
2022-07-28T06:16:56.529Z,1.40
2022-07-28T06:17:56.382Z,1.30
2022-07-28T06:18:56.363Z,1.60
2022-07-28T06:19:56.348Z,1.20
2022-07-28T06:20:56.377Z,1.40
2022-07-28T06:21:56.356Z,1.30
2022-07-28T06:22:56.525Z,1.40
2022-07-28T06:23:56.314Z,1.20
2022-07-28T06:24:56.327Z,1.10
2022-07-28T06:25:56.294Z,1.30
2022-07-28T06:26:56.315Z,1.10
2022-07-28T06:27:56.264Z,1.20
2022-07-28T06:28:56.262Z,1.10
2022-07-28T06:29:56.256Z,1.20
2022-07-28T06:30:56.242Z,1.30
2022-07-28T06:31:56.360Z,1.10
2022-07-28T06:32:56.208Z,0.90
2022-07-28T06:33:56.192Z,1.20
2022-07-28T06:34:56.196Z,1.30
2022-07-28T06:35:56.169Z,1.00
2022-07-28T06:36:56.158Z,1.10
2022-07-28T06:37:56.151Z,1.20
2022-07-28T06:38:56.144Z,1.20
2022-07-28T06:39:56.135Z,1.30
2022-07-28T06:40:56.129Z,1.20
2022-07-28T06:41:56.108Z,1.20
2022-07-28T06:42:56.109Z,1.20
2022-07-28T06:43:56.096Z,1.40
2022-07-28T06:44:59.422Z,1.20
2022-07-28T06:45:56.101Z,0.90
2022-07-28T06:46:56.142Z,1.30
2022-07-28T06:47:56.035Z,1.10
2022-07-28T06:48:56.075Z,1.00
2022-07-28T06:51:04.988Z,1.10
2022-07-28T06:52:05.995Z,1.40
2022-07-28T06:53:05.992Z,1.10
2022-07-28T06:54:11.032Z,1.00
2022-07-28T06:55:05.923Z,1.00
2022-07-28T06:56:06.010Z,1.10
2022-07-28T06:57:05.918Z,1.40
2022-07-28T06:58:05.892Z,1.20
2022-07-28T06:59:05.883Z,1.20
2022-07-28T07:00:05.879Z,1.00
2022-07-28T07:01:05.938Z,1.10
2022-07-28T07:02:05.861Z,1.00
2022-07-28T07:03:09.642Z,1.20
2022-07-28T07:04:06.548Z,1.20
2022-07-28T07:05:05.815Z,1.20
2022-07-28T07:06:05.801Z,1.10
2022-07-28T07:07:14.815Z,1.10
2022-07-28T07:08:05.800Z,1.10
2022-07-28T07:09:05.788Z,1.00
2022-07-28T07:10:05.762Z,1.20
2022-07-28T07:11:05.764Z,1.10
2022-07-28T07:12:05.745Z,1.20
2022-07-28T07:13:05.744Z,1.00
2022-07-28T07:14:05.720Z,1.00
2022-07-28T07:15:05.712Z,1.10
2022-07-28T07:16:05.795Z,1.10
2022-07-28T07:17:05.685Z,1.10
2022-07-28T07:18:05.686Z,1.10
2022-07-28T07:19:05.760Z,1.00
2022-07-28T07:20:05.652Z,1.30
2022-07-28T07:21:05.646Z,1.10
2022-07-28T07:22:05.637Z,1.30
2022-07-28T07:23:05.657Z,1.20
2022-07-28T07:24:05.620Z,1.10
2022-07-28T07:25:05.592Z,1.00
2022-07-28T07:26:05.591Z,1.20
2022-07-28T07:27:05.569Z,1.10
2022-07-28T07:28:05.573Z,1.20
2022-07-28T07:29:05.544Z,1.10
2022-07-28T07:30:05.539Z,1.00
2022-07-28T07:31:05.631Z,1.10
2022-07-28T07:32:10.192Z,1.10
2022-07-28T07:33:08.019Z,0.90
2022-07-28T07:34:05.513Z,1.00
2022-07-28T07:35:05.490Z,1.50
2022-07-28T07:36:05.483Z,0.90
2022-07-28T07:37:05.465Z,1.40
2022-07-28T07:38:05.452Z,1.00
2022-07-28T07:39:05.460Z,1.10
2022-07-28T07:40:05.455Z,0.90
2022-07-28T07:41:05.413Z,0.80
2022-07-28T07:42:05.403Z,1.10
2022-07-28T07:43:05.394Z,1.20
2022-07-28T07:44:05.404Z,1.20
2022-07-28T07:45:05.381Z,1.00
2022-07-28T07:46:05.394Z,1.40
2022-07-28T07:47:05.409Z,1.10
2022-07-28T07:48:05.356Z,1.00
2022-07-28T07:49:05.425Z,1.10
2022-07-28T07:50:05.358Z,1.20
2022-07-28T07:51:05.306Z,1.00
2022-07-28T07:52:05.304Z,1.10
2022-07-28T07:53:05.277Z,1.00
2022-07-28T07:54:05.270Z,1.10
2022-07-28T07:55:05.275Z,1.10
2022-07-28T07:56:05.249Z,1.10
2022-07-28T07:57:05.267Z,1.30
2022-07-28T07:58:05.243Z,1.20
2022-07-28T07:59:05.212Z,1.00
2022-07-28T08:00:05.230Z,1.00
2022-07-28T08:01:05.192Z,1.10
2022-07-28T08:02:05.348Z,1.10
2022-07-28T08:03:11.414Z,1.10
2022-07-28T08:04:05.206Z,1.00
2022-07-28T08:05:05.239Z,0.80
2022-07-28T08:06:05.161Z,1.10
2022-07-28T08:07:05.136Z,1.20
2022-07-28T08:08:05.395Z,1.30
2022-07-28T08:09:05.118Z,0.90
2022-07-28T08:10:05.103Z,1.30
2022-07-28T08:11:05.091Z,0.90
2022-07-28T08:12:05.068Z,1.00
2022-07-28T08:13:05.067Z,1.20
2022-07-28T08:14:05.064Z,0.90
2022-07-28T08:15:05.041Z,1.00
2022-07-28T08:16:05.136Z,1.10
2022-07-28T08:17:05.018Z,1.00
2022-07-28T08:18:05.008Z,1.30
2022-07-28T08:19:05.001Z,1.10
2022-07-28T08:20:04.983Z,1.10
2022-07-28T08:21:04.976Z,1.10
2022-07-28T08:22:04.961Z,0.80
2022-07-28T08:23:04.952Z,1.10
2022-07-28T08:24:04.953Z,1.20
2022-07-28T08:25:04.942Z,1.20
2022-07-28T08:26:04.911Z,1.10
2022-07-28T08:27:04.932Z,1.20
2022-07-28T08:28:04.897Z,1.30
2022-07-28T08:29:04.884Z,1.20
2022-07-28T08:30:04.885Z,1.00
2022-07-28T08:31:04.961Z,1.20
2022-07-28T08:32:04.847Z,1.30
2022-07-28T08:33:04.896Z,1.20
2022-07-28T08:34:04.827Z,1.10
2022-07-28T08:35:31.677Z,1.20
2022-07-28T08:36:04.818Z,1.40
2022-07-28T08:37:04.806Z,1.10
2022-07-28T08:38:04.787Z,1.30
2022-07-28T08:39:04.769Z,1.10
2022-07-28T08:40:04.783Z,1.40
2022-07-28T08:41:04.764Z,1.10
2022-07-28T08:42:04.745Z,1.20
2022-07-28T08:43:04.730Z,1.10
2022-07-28T08:44:04.722Z,1.10
2022-07-28T08:45:04.706Z,1.00
2022-07-28T08:46:04.816Z,1.20
2022-07-28T08:47:04.772Z,1.40
2022-07-28T08:48:09.427Z,1.20
2022-07-28T08:49:04.709Z,1.40
2022-07-28T08:50:04.655Z,1.10
2022-07-28T08:52:13.622Z,1.80
2022-07-28T08:53:14.603Z,1.30
2022-07-28T08:54:15.248Z,1.20
2022-07-28T08:55:19.397Z,1.20
2022-07-28T08:56:14.590Z,1.10
2022-07-28T08:57:14.566Z,1.20
2022-07-28T08:58:14.547Z,1.30
2022-07-28T08:59:14.544Z,1.10
2022-07-28T09:00:14.526Z,1.10
2022-07-28T09:01:14.574Z,1.20
2022-07-28T09:02:14.611Z,1.10
2022-07-28T09:03:14.577Z,1.10
2022-07-28T09:04:14.948Z,1.20
2022-07-28T09:05:14.469Z,1.40
2022-07-28T09:06:14.486Z,1.30
2022-07-28T09:07:14.491Z,1.00
2022-07-28T09:08:14.452Z,1.00
2022-07-28T09:09:14.448Z,1.50
2022-07-28T09:10:14.421Z,1.20
2022-07-28T09:11:14.407Z,1.10
2022-07-28T09:12:14.405Z,1.00
2022-07-28T09:13:14.388Z,1.20
2022-07-28T09:14:14.719Z,1.20
2022-07-28T09:15:14.370Z,1.20
2022-07-28T09:16:14.448Z,1.30
2022-07-28T09:17:14.359Z,1.30
2022-07-28T09:18:14.354Z,1.20
2022-07-28T09:19:14.363Z,1.10
2022-07-28T09:20:14.310Z,1.00
2022-07-28T09:21:14.308Z,1.00
2022-07-28T09:22:14.309Z,1.10
2022-07-28T09:23:42.243Z,1.30
2022-07-28T09:24:14.579Z,1.20
2022-07-28T09:25:14.255Z,1.20
2022-07-28T09:26:14.248Z,1.00
2022-07-28T09:27:14.253Z,1.30
2022-07-28T09:28:14.225Z,1.20
2022-07-28T09:29:14.231Z,1.20
2022-07-28T09:30:14.200Z,1.00
2022-07-28T09:31:14.295Z,1.10
2022-07-28T09:32:14.193Z,1.30
2022-07-28T09:33:41.782Z,1.20
2022-07-28T09:34:14.575Z,1.10
2022-07-28T09:35:14.153Z,1.40
2022-07-28T09:36:14.134Z,1.20
2022-07-28T09:37:14.139Z,1.10
2022-07-28T09:38:14.131Z,1.00
2022-07-28T09:39:14.121Z,1.10
2022-07-28T09:40:14.095Z,1.20
2022-07-28T09:41:14.088Z,1.20
2022-07-28T09:42:14.089Z,1.20
2022-07-28T09:43:14.073Z,1.10
2022-07-28T09:44:14.433Z,1.00
2022-07-28T09:45:23.022Z,1.70
2022-07-28T09:46:14.228Z,1.10
2022-07-28T09:47:14.221Z,1.20
2022-07-28T09:48:14.278Z,1.10
2022-07-28T09:49:14.204Z,1.30
2022-07-28T09:50:13.985Z,1.10
2022-07-28T09:51:13.981Z,1.20
2022-07-28T09:52:13.967Z,1.10
2022-07-28T09:53:13.976Z,1.10
2022-07-28T09:54:14.640Z,1.70
2022-07-28T09:55:13.931Z,1.10
2022-07-28T09:56:13.919Z,1.10
2022-07-28T09:57:13.907Z,1.20
2022-07-28T09:58:13.894Z,1.20
2022-07-28T09:59:14.690Z,1.10
2022-07-28T10:00:13.889Z,1.30
2022-07-28T10:01:13.990Z,1.20
2022-07-28T10:02:14.013Z,1.20
2022-07-28T10:03:13.919Z,1.20
2022-07-28T10:04:13.973Z,1.20
2022-07-28T10:05:13.820Z,1.50
2022-07-28T10:06:13.807Z,1.10
2022-07-28T10:07:13.802Z,1.30
2022-07-28T10:08:13.784Z,1.40
2022-07-28T10:09:13.784Z,1.40
2022-07-28T10:10:13.779Z,1.30
2022-07-28T10:11:13.764Z,1.20
2022-07-28T10:12:13.777Z,1.30
2022-07-28T10:13:13.746Z,1.10
2022-07-28T10:14:14.049Z,1.10
2022-07-28T10:15:13.733Z,1.10
2022-07-28T10:16:13.798Z,1.20
2022-07-28T10:17:13.694Z,1.30
2022-07-28T10:18:13.695Z,1.10
2022-07-28T10:19:13.686Z,1.10
2022-07-28T10:20:14.121Z,1.10
2022-07-28T10:21:13.652Z,1.00
2022-07-28T10:22:13.641Z,1.10
2022-07-28T10:23:13.636Z,1.40
2022-07-28T10:24:13.932Z,1.20
2022-07-28T10:25:13.620Z,1.20
2022-07-28T10:26:13.594Z,1.20
2022-07-28T10:27:13.584Z,1.20
2022-07-28T10:28:13.575Z,1.20
2022-07-28T10:29:13.563Z,1.10
2022-07-28T10:30:13.569Z,1.30
2022-07-28T10:31:13.623Z,1.10
2022-07-28T10:32:13.525Z,1.10
2022-07-28T10:33:13.513Z,1.10
2022-07-28T10:34:16.342Z,1.30
2022-07-28T10:35:13.528Z,1.00
2022-07-28T10:36:13.487Z,1.10
2022-07-28T10:37:13.482Z,1.10
2022-07-28T10:38:14.005Z,1.10
2022-07-28T10:39:13.454Z,1.20
2022-07-28T10:40:13.455Z,1.40
2022-07-28T10:41:13.444Z,1.40
2022-07-28T10:42:13.421Z,1.30
2022-07-28T10:43:13.411Z,1.20
2022-07-28T10:44:13.855Z,1.00
2022-07-28T10:45:13.398Z,1.00
2022-07-28T10:46:16.331Z,1.20
2022-07-28T10:47:18.503Z,1.10
2022-07-28T10:48:13.356Z,1.20
2022-07-28T10:49:13.442Z,1.10
2022-07-28T10:50:13.334Z,1.10
2022-07-28T10:51:13.355Z,1.10
2022-07-28T10:53:22.289Z,1.00
2022-07-28T10:54:24.988Z,1.20
2022-07-28T10:55:23.272Z,1.20
2022-07-28T10:56:23.265Z,1.30
2022-07-28T10:57:23.252Z,1.20
2022-07-28T10:58:25.094Z,0.90
2022-07-28T10:59:23.221Z,1.50
2022-07-28T11:00:26.383Z,1.30
2022-07-28T11:01:47.266Z,1.00
2022-07-28T11:02:24.479Z,1.30
2022-07-28T11:03:23.383Z,1.20
2022-07-28T11:04:29.012Z,1.30
2022-07-28T11:05:23.150Z,1.00
2022-07-28T11:06:23.141Z,1.30
2022-07-28T11:07:23.130Z,1.10
2022-07-28T11:08:23.143Z,1.20
2022-07-28T11:09:23.121Z,1.10
2022-07-28T11:10:23.099Z,1.30
2022-07-28T11:11:23.092Z,1.00
2022-07-28T11:12:23.087Z,1.10
2022-07-28T11:13:23.119Z,1.10
2022-07-28T11:14:24.350Z,1.30
2022-07-28T11:15:23.045Z,1.10
2022-07-28T11:16:23.116Z,1.30
2022-07-28T11:17:24.647Z,1.00
2022-07-28T11:18:23.018Z,1.10
2022-07-28T11:19:40.651Z,1.20
2022-07-28T11:20:27.596Z,1.20
2022-07-28T11:21:22.985Z,1.30
2022-07-28T11:22:22.973Z,1.00
2022-07-28T11:23:22.974Z,1.20
2022-07-28T11:24:22.985Z,1.10
2022-07-28T11:25:23.178Z,1.30
2022-07-28T11:26:22.932Z,1.40
2022-07-28T11:27:22.918Z,1.30
2022-07-28T11:28:22.905Z,1.20
2022-07-28T11:29:22.897Z,1.10
2022-07-28T11:30:23.007Z,1.10
2022-07-28T11:31:22.874Z,1.20
2022-07-28T11:32:22.867Z,1.10
2022-07-28T11:33:22.858Z,1.40
2022-07-28T11:34:22.849Z,1.50
2022-07-28T11:35:22.848Z,1.20
2022-07-28T11:36:22.839Z,1.20
2022-07-28T11:37:22.813Z,1.00
2022-07-28T11:38:22.806Z,1.20
2022-07-28T11:39:22.794Z,1.10
2022-07-28T11:40:22.788Z,1.30
2022-07-28T11:41:22.774Z,1.20
2022-07-28T11:42:22.753Z,1.10
2022-07-28T11:43:25.978Z,1.10
2022-07-28T11:44:22.737Z,1.20
2022-07-28T11:45:22.731Z,0.90
2022-07-28T11:46:22.806Z,1.00
2022-07-28T11:47:22.716Z,1.00
2022-07-28T11:48:22.695Z,1.30
2022-07-28T11:49:22.767Z,1.30
2022-07-28T11:50:22.668Z,1.10
2022-07-28T11:51:22.673Z,1.30
2022-07-28T11:52:22.876Z,1.40
2022-07-28T11:53:22.638Z,1.30
2022-07-28T11:54:22.631Z,1.10
2022-07-28T11:55:49.881Z,1.10
2022-07-28T11:56:22.637Z,1.10
2022-07-28T11:57:22.612Z,1.10
2022-07-28T11:58:22.597Z,1.20
2022-07-28T11:59:22.583Z,1.10
2022-07-28T12:00:22.569Z,1.40
2022-07-28T12:01:22.577Z,1.30
2022-07-28T12:02:22.663Z,1.10
2022-07-28T12:03:26.130Z,1.10
2022-07-28T12:04:22.557Z,1.10
2022-07-28T12:05:22.531Z,1.10
2022-07-28T12:06:27.315Z,1.40
2022-07-28T12:07:23.303Z,1.20
2022-07-28T12:08:22.504Z,1.30
2022-07-28T12:09:26.810Z,1.30
2022-07-28T12:10:43.931Z,1.00
2022-07-28T12:11:22.457Z,1.00
2022-07-28T12:12:22.451Z,1.10
2022-07-28T12:13:22.428Z,1.30
2022-07-28T12:14:22.419Z,1.10
2022-07-28T12:15:22.434Z,1.40
2022-07-28T12:16:22.469Z,1.10
2022-07-28T12:17:22.397Z,1.60
2022-07-28T12:18:24.811Z,1.10
2022-07-28T12:19:22.368Z,1.00
2022-07-28T12:20:22.380Z,1.20
2022-07-28T12:21:22.358Z,1.20
2022-07-28T12:22:22.342Z,1.30
2022-07-28T12:23:22.334Z,1.30
2022-07-28T12:24:22.705Z,1.20
2022-07-28T12:25:22.293Z,1.00
2022-07-28T12:26:26.076Z,1.00
2022-07-28T12:27:25.026Z,1.30
2022-07-28T12:28:22.274Z,1.20
2022-07-28T12:29:22.272Z,1.00
2022-07-28T12:30:22.248Z,1.20
2022-07-28T12:31:22.321Z,1.20
2022-07-28T12:32:22.252Z,0.90
2022-07-28T12:33:26.114Z,1.60
2022-07-28T12:34:22.202Z,1.40
2022-07-28T12:35:22.216Z,1.20
2022-07-28T12:36:22.180Z,1.30
2022-07-28T12:37:22.180Z,1.40
2022-07-28T12:38:22.169Z,1.20
2022-07-28T12:39:22.172Z,1.20
2022-07-28T12:40:27.300Z,1.20
2022-07-28T12:41:22.129Z,1.20
2022-07-28T12:42:22.116Z,1.30
2022-07-28T12:43:22.121Z,1.20
2022-07-28T12:44:22.093Z,1.20
2022-07-28T12:45:22.115Z,1.20
2022-07-28T12:46:22.175Z,1.20
2022-07-28T12:47:22.069Z,1.40
2022-07-28T12:48:22.072Z,1.10
2022-07-28T12:49:22.219Z,1.20
2022-07-28T12:50:22.026Z,1.20
2022-07-28T12:51:22.019Z,1.10
2022-07-28T12:52:22.675Z,1.30
2022-07-28T12:54:31.282Z,1.60
2022-07-28T12:55:32.261Z,1.30
2022-07-28T12:56:32.244Z,1.00
2022-07-28T12:57:32.260Z,1.20
2022-07-28T12:58:32.241Z,1.20
2022-07-28T12:59:32.211Z,1.10
2022-07-28T13:00:32.200Z,1.00
2022-07-28T13:01:33.243Z,1.20
2022-07-28T13:02:32.245Z,1.20
2022-07-28T13:03:32.188Z,1.20
2022-07-28T13:04:32.158Z,1.20
2022-07-28T13:05:32.144Z,1.20
2022-07-28T13:06:32.141Z,1.10
2022-07-28T13:07:32.147Z,1.60
2022-07-28T13:08:32.129Z,1.60
2022-07-28T13:09:32.999Z,1.50
2022-07-28T13:10:32.094Z,1.30
2022-07-28T13:11:45.975Z,1.10
2022-07-28T13:12:32.081Z,1.10
2022-07-28T13:13:32.060Z,1.20
2022-07-28T13:14:32.070Z,1.10
2022-07-28T13:15:32.056Z,1.40
2022-07-28T13:16:32.114Z,1.30
2022-07-28T13:17:32.028Z,1.30
2022-07-28T13:18:32.017Z,1.30
2022-07-28T13:19:32.012Z,1.00
2022-07-28T13:20:31.986Z,1.20
2022-07-28T13:21:31.978Z,1.20
2022-07-28T13:22:31.966Z,1.10
2022-07-28T13:23:31.959Z,1.20
2022-07-28T13:24:31.962Z,1.10
2022-07-28T13:25:31.936Z,1.10
2022-07-28T13:26:31.929Z,1.20